This is the latest recevied weather packets stored in our database for station/object OK2PAT-12. If no packets are shown the sender has not sent any weather packets the latest 1 day(s).
| Time | Temp. | Humidity | Pressure | Rain* | Wind** | Luminosity | Snow |
|---|---|---|---|---|---|---|---|
| 1778090220 | 20.56° C | 50% | 1006.3 hPa | - | - | - | - |
| 1778089620 | 21.11° C | 49% | 1006.4 hPa | - | - | - | - |
| 1778089020 | 21.67° C | 48% | 1006.5 hPa | - | - | - | - |
| 1778088420 | 21.67° C | 47% | 1006.5 hPa | - | - | - | - |
| 1778087820 | 22.22° C | 46% | 1006.6 hPa | - | - | - | - |
| 1778087220 | 22.22° C | 45% | 1006.6 hPa | - | - | - | - |
| 1778086620 | 22.78° C | 46% | 1006.6 hPa | - | - | - | - |
| 1778086020 | 22.78° C | 46% | 1006.6 hPa | - | - | - | - |
| 1778085420 | 22.78° C | 45% | 1006.6 hPa | - | - | - | - |
| 1778084820 | 23.33° C | 45% | 1006.8 hPa | - | - | - | - |
| 1778083020 | 22.78° C | 46% | 1007.3 hPa | - | - | - | - |
| 1778081220 | 23.89° C | 44% | 1007.4 hPa | - | - | - | - |
| 1778078220 | 25.56° C | 39% | 1007.8 hPa | - | - | - | - |
| 1778057819 | 21.11° C | 51% | 1008.7 hPa | - | - | - | - |
| 1778056019 | 20° C | 54% | 1008.5 hPa | - | - | - | - |
| 1778050018 | 18.89° C | 56% | 1008.2 hPa | - | - | - | - |
| 1778047618 | 18.33° C | 57% | 1008.2 hPa | - | - | - | - |
| 1778045818 | 17.78° C | 58% | 1007.9 hPa | - | - | - | - |
| 1778045218 | 17.22° C | 58% | 1007.8 hPa | - | - | - | - |
| 1778044618 | 17.22° C | 59% | 1007.8 hPa | - | - | - | - |
| 1778044018 | 16.67° C | 59% | 1007.8 hPa | - | - | - | - |
| 1778042818 | 16.11° C | 61% | 1007.7 hPa | - | - | - | - |
| 1778041018 | 15° C | 63% | 1007.5 hPa | - | - | - | - |
| 1778039218 | 14.44° C | 63% | 1007.3 hPa | - | - | - | - |
| 1778038018 | 14.44° C | 64% | 1007.2 hPa | - | - | - | - |
* Rain since midnight (hover to see other rain measurements)
** Current wind speed in m/s (hover to see current wind gust speed)